sensor_id;sensor_type;location;lat;lon;timestamp;pressure;altitude;pressure_sealevel;temperature;humidity
65718;BME280;52445;52.466;-1.016;2022-10-04T00:04:41;100463.50;;;14.82;70.13
65718;BME280;52445;52.466;-1.016;2022-10-04T00:09:54;100456.50;;;14.87;70.08
65718;BME280;52445;52.466;-1.016;2022-10-04T00:12:26;100458.22;;;14.88;69.56
65718;BME280;52445;52.466;-1.016;2022-10-04T00:14:57;100449.50;;;14.89;70.10
65718;BME280;52445;52.466;-1.016;2022-10-04T00:17:28;100437.34;;;14.88;70.09
65718;BME280;52445;52.466;-1.016;2022-10-04T00:19:57;100444.28;;;14.89;70.34
65718;BME280;52445;52.466;-1.016;2022-10-04T00:22:26;100438.19;;;14.89;69.92
65718;BME280;52445;52.466;-1.016;2022-10-04T00:25:15;100433.09;;;14.81;70.55
65718;BME280;52445;52.466;-1.016;2022-10-04T00:36:39;100427.63;;;14.98;70.85
65718;BME280;52445;52.466;-1.016;2022-10-04T00:44:50;100441.53;;;14.99;70.40
65718;BME280;52445;52.466;-1.016;2022-10-04T00:50:06;100432.03;;;14.95;70.53
65718;BME280;52445;52.466;-1.016;2022-10-04T00:52:41;100425.97;;;14.94;70.42
65718;BME280;52445;52.466;-1.016;2022-10-04T00:55:19;100416.44;;;14.92;70.75
65718;BME280;52445;52.466;-1.016;2022-10-04T00:57:48;100406.00;;;14.92;70.74
65718;BME280;52445;52.466;-1.016;2022-10-04T01:00:18;100399.94;;;14.91;70.95
65718;BME280;52445;52.466;-1.016;2022-10-04T01:05:25;100399.13;;;14.87;70.83
65718;BME280;52445;52.466;-1.016;2022-10-04T01:08:03;100403.47;;;14.85;71.14
65718;BME280;52445;52.466;-1.016;2022-10-04T01:10:46;100401.78;;;14.83;70.63
65718;BME280;52445;52.466;-1.016;2022-10-04T01:13:18;100400.88;;;14.85;71.39
65718;BME280;52445;52.466;-1.016;2022-10-04T01:18:32;100388.69;;;14.87;71.36
65718;BME280;52445;52.466;-1.016;2022-10-04T01:26:37;100365.28;;;14.83;72.16
65718;BME280;52445;52.466;-1.016;2022-10-04T01:31:46;100356.50;;;14.88;72.11
65718;BME280;52445;52.466;-1.016;2022-10-04T01:34:16;100356.50;;;14.88;72.04
65718;BME280;52445;52.466;-1.016;2022-10-04T01:36:44;100358.22;;;14.89;71.95
65718;BME280;52445;52.466;-1.016;2022-10-04T01:39:14;100347.81;;;14.88;71.75
65718;BME280;52445;52.466;-1.016;2022-10-04T01:41:47;100333.06;;;14.85;72.09
65718;BME280;52445;52.466;-1.016;2022-10-04T01:44:30;100334.84;;;14.83;72.12
65718;BME280;52445;52.466;-1.016;2022-10-04T01:47:02;100340.91;;;14.85;72.15
65718;BME280;52445;52.466;-1.016;2022-10-04T01:49:33;100335.66;;;14.87;72.09
65718;BME280;52445;52.466;-1.016;2022-10-04T01:52:09;100322.66;;;14.85;72.67
65718;BME280;52445;52.466;-1.016;2022-10-04T01:54:43;100326.09;;;14.87;72.44
65718;BME280;52445;52.466;-1.016;2022-10-04T01:57:22;100317.44;;;14.85;72.64
65718;BME280;52445;52.466;-1.016;2022-10-04T01:59:56;100320.00;;;14.88;72.55
65718;BME280;52445;52.466;-1.016;2022-10-04T02:02:49;100313.97;;;14.83;73.20
65718;BME280;52445;52.466;-1.016;2022-10-04T02:05:26;100313.94;;;14.86;73.12
65718;BME280;52445;52.466;-1.016;2022-10-04T02:07:55;100308.66;;;14.89;73.29
65718;BME280;52445;52.466;-1.016;2022-10-04T02:10:23;100305.16;;;14.90;73.27
65718;BME280;52445;52.466;-1.016;2022-10-04T02:12:52;100299.09;;;14.92;73.26
65718;BME280;52445;52.466;-1.016;2022-10-04T02:15:21;100278.28;;;14.88;74.00
65718;BME280;52445;52.466;-1.016;2022-10-04T02:17:53;100270.44;;;14.88;74.24
65718;BME280;52445;52.466;-1.016;2022-10-04T02:20:23;100274.78;;;14.88;73.97
65718;BME280;52445;52.466;-1.016;2022-10-04T02:22:55;100265.28;;;14.85;74.24
65718;BME280;52445;52.466;-1.016;2022-10-04T02:25:24;100265.22;;;14.88;74.14
65718;BME280;52445;52.466;-1.016;2022-10-04T02:27:52;100263.44;;;14.90;74.03
65718;BME280;52445;52.466;-1.016;2022-10-04T02:30:19;100249.56;;;14.90;73.51
65718;BME280;52445;52.466;-1.016;2022-10-04T02:32:47;100244.41;;;14.85;74.31
65718;BME280;52445;52.466;-1.016;2022-10-04T02:35:30;100234.28;;;14.67;75.50
65718;BME280;52445;52.466;-1.016;2022-10-04T02:41:02;100231.53;;;14.76;74.43
65718;BME280;52445;52.466;-1.016;2022-10-04T02:43:39;100223.69;;;14.76;75.01
65718;BME280;52445;52.466;-1.016;2022-10-04T02:46:13;100215.84;;;14.77;74.62
65718;BME280;52445;52.466;-1.016;2022-10-04T02:56:51;100200.31;;;14.71;74.75
65718;BME280;52445;52.466;-1.016;2022-10-04T02:59:19;100204.66;;;14.69;74.65
65718;BME280;52445;52.466;-1.016;2022-10-04T03:04:29;100208.19;;;14.67;75.19
65718;BME280;52445;52.466;-1.016;2022-10-04T03:06:59;100196.06;;;14.65;75.24
65718;BME280;52445;52.466;-1.016;2022-10-04T03:09:27;100182.19;;;14.63;74.77
65718;BME280;52445;52.466;-1.016;2022-10-04T03:11:55;100180.44;;;14.64;74.93
65718;BME280;52445;52.466;-1.016;2022-10-04T03:14:24;100182.25;;;14.60;76.10
65718;BME280;52445;52.466;-1.016;2022-10-04T03:16:54;100172.69;;;14.59;75.53
65718;BME280;52445;52.466;-1.016;2022-10-04T03:19:24;100167.47;;;14.59;75.20
65718;BME280;52445;52.466;-1.016;2022-10-04T03:21:54;100164.91;;;14.58;76.08
65718;BME280;52445;52.466;-1.016;2022-10-04T03:24:26;100172.78;;;14.55;76.12
65718;BME280;52445;52.466;-1.016;2022-10-04T03:26:55;100179.66;;;14.59;75.57
65718;BME280;52445;52.466;-1.016;2022-10-04T03:29:24;100194.44;;;14.58;75.83
65718;BME280;52445;52.466;-1.016;2022-10-04T03:31:54;100190.94;;;14.59;75.84
65718;BME280;52445;52.466;-1.016;2022-10-04T03:34:27;100178.81;;;14.58;75.38
65718;BME280;52445;52.466;-1.016;2022-10-04T03:36:55;100165.78;;;14.57;75.07
65718;BME280;52445;52.466;-1.016;2022-10-04T03:39:31;100165.84;;;14.53;75.31
65718;BME280;52445;52.466;-1.016;2022-10-04T03:42:03;100160.63;;;14.53;75.18
65718;BME280;52445;52.466;-1.016;2022-10-04T03:44:33;100160.66;;;14.52;75.36
65718;BME280;52445;52.466;-1.016;2022-10-04T03:47:00;100171.94;;;14.54;75.23
65718;BME280;52445;52.466;-1.016;2022-10-04T03:49:32;100164.91;;;14.56;75.00
65718;BME280;52445;52.466;-1.016;2022-10-04T03:52:01;100164.00;;;14.60;75.54
65718;BME280;52445;52.466;-1.016;2022-10-04T03:54:29;100165.69;;;14.63;75.79
65718;BME280;52445;52.466;-1.016;2022-10-04T03:56:57;100165.66;;;14.66;75.35
65718;BME280;52445;52.466;-1.016;2022-10-04T03:59:25;100160.34;;;14.71;74.91
65718;BME280;52445;52.466;-1.016;2022-10-04T04:02:07;100154.22;;;14.72;74.90
65718;BME280;52445;52.466;-1.016;2022-10-04T04:10:51;100142.78;;;14.82;75.29
65718;BME280;52445;52.466;-1.016;2022-10-04T04:15:56;100145.34;;;14.85;75.04
65718;BME280;52445;52.466;-1.016;2022-10-04T04:18:25;100145.34;;;14.85;75.05
65718;BME280;52445;52.466;-1.016;2022-10-04T04:20:54;100147.00;;;14.89;74.93
65718;BME280;52445;52.466;-1.016;2022-10-04T04:23:43;100142.69;;;14.87;74.88
65718;BME280;52445;52.466;-1.016;2022-10-04T04:26:22;100147.78;;;14.93;74.55
65718;BME280;52445;52.466;-1.016;2022-10-04T04:28:53;100139.09;;;14.94;74.69
65718;BME280;52445;52.466;-1.016;2022-10-04T04:31:24;100146.88;;;14.96;74.68
65718;BME280;52445;52.466;-1.016;2022-10-04T04:34:03;100130.41;;;14.94;75.02
65718;BME280;52445;52.466;-1.016;2022-10-04T04:36:40;100130.38;;;14.95;75.14
65718;BME280;52445;52.466;-1.016;2022-10-04T04:41:43;100143.38;;;14.97;74.26
65718;BME280;52445;52.466;-1.016;2022-10-04T04:44:16;100138.13;;;14.98;74.95
65718;BME280;52445;52.466;-1.016;2022-10-04T04:46:45;100138.16;;;14.97;74.79
65718;BME280;52445;52.466;-1.016;2022-10-04T04:49:15;100135.56;;;14.97;74.50
65718;BME280;52445;52.466;-1.016;2022-10-04T04:51:51;100130.34;;;14.97;74.48
65718;BME280;52445;52.466;-1.016;2022-10-04T04:54:21;100135.53;;;14.98;74.49
65718;BME280;52445;52.466;-1.016;2022-10-04T04:56:51;100129.44;;;14.98;74.26
65718;BME280;52445;52.466;-1.016;2022-10-04T04:59:20;100132.06;;;14.98;74.37
65718;BME280;52445;52.466;-1.016;2022-10-04T05:01:48;100140.75;;;14.98;74.21
65718;BME280;52445;52.466;-1.016;2022-10-04T05:04:19;100132.91;;;14.98;74.08
65718;BME280;52445;52.466;-1.016;2022-10-04T05:07:04;100131.28;;;14.93;74.16
65718;BME280;52445;52.466;-1.016;2022-10-04T05:09:34;100126.00;;;14.97;74.01
65718;BME280;52445;52.466;-1.016;2022-10-04T05:12:06;100122.78;;;14.83;74.56
65718;BME280;52445;52.466;-1.016;2022-10-04T05:14:37;100113.84;;;14.95;73.90
65718;BME280;52445;52.466;-1.016;2022-10-04T05:17:05;100113.00;;;14.94;73.68
65718;BME280;52445;52.466;-1.016;2022-10-04T05:19:35;100113.94;;;14.92;73.78
65718;BME280;52445;52.466;-1.016;2022-10-04T05:22:09;100100.09;;;14.86;74.16
65718;BME280;52445;52.466;-1.016;2022-10-04T05:24:40;100104.50;;;14.84;73.39
65718;BME280;52445;52.466;-1.016;2022-10-04T05:27:16;100114.97;;;14.83;73.10
65718;BME280;52445;52.466;-1.016;2022-10-04T05:32:46;100095.03;;;14.80;72.62
65718;BME280;52445;52.466;-1.016;2022-10-04T05:35:18;100108.88;;;14.82;72.76
65718;BME280;52445;52.466;-1.016;2022-10-04T05:43:44;100101.09;;;14.79;72.08
65718;BME280;52445;52.466;-1.016;2022-10-04T05:48:58;100108.88;;;14.82;71.87
65718;BME280;52445;52.466;-1.016;2022-10-04T05:51:28;100105.38;;;14.83;71.62
65718;BME280;52445;52.466;-1.016;2022-10-04T05:53:59;100103.66;;;14.82;71.62
65718;BME280;52445;52.466;-1.016;2022-10-04T05:59:43;100103.72;;;14.79;71.21
65718;BME280;52445;52.466;-1.016;2022-10-04T06:02:23;100101.09;;;14.81;70.67
65718;BME280;52445;52.466;-1.016;2022-10-04T06:18:41;100096.78;;;14.80;71.18
65718;BME280;52445;52.466;-1.016;2022-10-04T06:21:21;100101.97;;;14.81;71.08
65718;BME280;52445;52.466;-1.016;2022-10-04T06:23:58;100100.16;;;14.83;71.05
65718;BME280;52445;52.466;-1.016;2022-10-04T06:26:34;100092.31;;;14.85;70.70
65718;BME280;52445;52.466;-1.016;2022-10-04T06:29:06;100086.22;;;14.86;70.91
65718;BME280;52445;52.466;-1.016;2022-10-04T07:07:54;100096.38;;;15.00;70.70
65718;BME280;52445;52.466;-1.016;2022-10-04T07:10:39;100104.25;;;14.97;69.89
65718;BME280;52445;52.466;-1.016;2022-10-04T07:16:01;100101.59;;;15.00;70.12
65718;BME280;52445;52.466;-1.016;2022-10-04T07:18:35;100086.69;;;15.05;69.92
65718;BME280;52445;52.466;-1.016;2022-10-04T07:21:10;100082.22;;;15.10;69.89
65718;BME280;52445;52.466;-1.016;2022-10-04T07:23:48;100076.97;;;15.13;69.89
65718;BME280;52445;52.466;-1.016;2022-10-04T07:26:24;100083.75;;;15.21;69.93
65718;BME280;52445;52.466;-1.016;2022-10-04T07:28:56;100065.34;;;15.28;70.33
65718;BME280;52445;52.466;-1.016;2022-10-04T07:31:49;100074.78;;;15.34;69.83
65718;BME280;52445;52.466;-1.016;2022-10-04T07:34:22;100066.78;;;15.42;69.09
65718;BME280;52445;52.466;-1.016;2022-10-04T07:36:54;100068.34;;;15.51;69.78
65718;BME280;52445;52.466;-1.016;2022-10-04T07:39:33;100070.94;;;15.51;69.07
65718;BME280;52445;52.466;-1.016;2022-10-04T07:42:19;100068.22;;;15.55;69.03
65718;BME280;52445;52.466;-1.016;2022-10-04T07:47:33;100073.88;;;15.75;69.35
65718;BME280;52445;52.466;-1.016;2022-10-04T07:50:21;100065.59;;;15.95;69.25
65718;BME280;52445;52.466;-1.016;2022-10-04T07:52:52;100074.53;;;16.19;68.76
65718;BME280;52445;52.466;-1.016;2022-10-04T08:06:50;100068.75;;;16.41;67.98
65718;BME280;52445;52.466;-1.016;2022-10-04T08:12:24;100052.00;;;16.49;67.75
65718;BME280;52445;52.466;-1.016;2022-10-04T08:20:49;100065.34;;;16.71;67.73
65718;BME280;52445;52.466;-1.016;2022-10-04T09:15:28;100053.72;;;19.44;62.45
65718;BME280;52445;52.466;-1.016;2022-10-04T09:18:20;100044.84;;;19.24;62.57
65718;BME280;52445;52.466;-1.016;2022-10-04T09:57:20;100055.31;;;18.53;64.08
65718;BME280;52445;52.466;-1.016;2022-10-04T10:05:35;100046.19;;;19.12;63.00
65718;BME280;52445;52.466;-1.016;2022-10-04T10:11:23;100082.75;;;19.17;62.21
65718;BME280;52445;52.466;-1.016;2022-10-04T10:28:50;100036.06;;;19.01;62.41
65718;BME280;52445;52.466;-1.016;2022-10-04T10:54:06;100010.69;;;21.29;57.49
65718;BME280;52445;52.466;-1.016;2022-10-04T10:56:54;100009.63;;;21.14;57.52
65718;BME280;52445;52.466;-1.016;2022-10-04T11:31:20;99997.44;;;19.93;59.59
65718;BME280;52445;52.466;-1.016;2022-10-04T11:42:16;99990.72;;;20.27;59.68
65718;BME280;52445;52.466;-1.016;2022-10-04T12:04:40;99976.41;;;19.93;58.62
65718;BME280;52445;52.466;-1.016;2022-10-04T12:38:16;99960.78;;;19.90;58.86
65718;BME280;52445;52.466;-1.016;2022-10-04T12:46:12;99966.03;;;19.90;58.92
65718;BME280;52445;52.466;-1.016;2022-10-04T12:51:48;99955.41;;;19.93;58.96
65718;BME280;52445;52.466;-1.016;2022-10-04T13:15:43;99966.41;;;19.81;59.14
65718;BME280;52445;52.466;-1.016;2022-10-04T13:21:38;99950.53;;;19.84;59.33
65718;BME280;52445;52.466;-1.016;2022-10-04T13:30:34;99959.28;;;20.05;59.67
65718;BME280;52445;52.466;-1.016;2022-10-04T13:35:51;99962.03;;;20.23;58.93
65718;BME280;52445;52.466;-1.016;2022-10-04T13:44:25;99945.19;;;20.27;58.75
65718;BME280;52445;52.466;-1.016;2022-10-04T14:27:16;99918.41;;;20.57;58.16
65718;BME280;52445;52.466;-1.016;2022-10-04T14:30:16;99924.81;;;20.51;57.72
65718;BME280;52445;52.466;-1.016;2022-10-04T14:33:13;99933.91;;;20.44;57.79
65718;BME280;52445;52.466;-1.016;2022-10-04T14:36:00;99919.09;;;20.41;57.69
65718;BME280;52445;52.466;-1.016;2022-10-04T15:04:20;99925.44;;;19.97;58.38
65718;BME280;52445;52.466;-1.016;2022-10-04T15:06:58;99940.22;;;20.00;58.33
65718;BME280;52445;52.466;-1.016;2022-10-04T15:15:19;99940.13;;;19.81;58.62
65718;BME280;52445;52.466;-1.016;2022-10-04T15:20:33;99945.25;;;19.84;58.95
65718;BME280;52445;52.466;-1.016;2022-10-04T15:23:15;99948.19;;;19.77;59.24
65718;BME280;52445;52.466;-1.016;2022-10-04T15:28:42;99937.13;;;19.90;58.54
65718;BME280;52445;52.466;-1.016;2022-10-04T15:47:34;99931.22;;;19.43;59.59
65718;BME280;52445;52.466;-1.016;2022-10-04T15:52:52;99923.56;;;19.37;60.35
65718;BME280;52445;52.466;-1.016;2022-10-04T15:58:26;99915.34;;;19.24;60.11
65718;BME280;52445;52.466;-1.016;2022-10-04T16:07:20;99909.50;;;19.17;60.50
65718;BME280;52445;52.466;-1.016;2022-10-04T16:10:00;99915.72;;;19.14;60.51
65718;BME280;52445;52.466;-1.016;2022-10-04T16:23:41;99894.69;;;19.16;61.20
65718;BME280;52445;52.466;-1.016;2022-10-04T16:34:51;99877.41;;;18.88;61.81
65718;BME280;52445;52.466;-1.016;2022-10-04T16:43:01;99873.44;;;18.78;62.00
65718;BME280;52445;52.466;-1.016;2022-10-04T16:54:27;99868.84;;;18.60;61.85
65718;BME280;52445;52.466;-1.016;2022-10-04T17:07:39;99859.56;;;18.52;62.14
65718;BME280;52445;52.466;-1.016;2022-10-04T17:13:05;99870.31;;;18.45;63.09
65718;BME280;52445;52.466;-1.016;2022-10-04T17:15:56;99869.72;;;18.37;62.95
65718;BME280;52445;52.466;-1.016;2022-10-04T17:21:13;99852.28;;;18.36;62.81
65718;BME280;52445;52.466;-1.016;2022-10-04T17:24:19;99844.69;;;18.30;63.15
65718;BME280;52445;52.466;-1.016;2022-10-04T17:38:05;99847.19;;;18.07;64.23
65718;BME280;52445;52.466;-1.016;2022-10-04T17:46:15;99842.63;;;17.65;67.34
65718;BME280;52445;52.466;-1.016;2022-10-04T17:48:50;99845.66;;;17.27;68.48
65718;BME280;52445;52.466;-1.016;2022-10-04T17:54:21;99860.22;;;17.08;68.99
65718;BME280;52445;52.466;-1.016;2022-10-04T17:57:14;99862.78;;;17.10;69.69
65718;BME280;52445;52.466;-1.016;2022-10-04T17:59:47;99857.47;;;17.13;69.45
65718;BME280;52445;52.466;-1.016;2022-10-04T18:05:14;99854.72;;;17.16;68.63
65718;BME280;52445;52.466;-1.016;2022-10-04T18:07:47;99857.16;;;17.23;68.83
65718;BME280;52445;52.466;-1.016;2022-10-04T18:10:26;99862.38;;;17.23;68.78
65718;BME280;52445;52.466;-1.016;2022-10-04T18:18:39;99845.47;;;17.33;68.24
65718;BME280;52445;52.466;-1.016;2022-10-04T18:23:53;99855.75;;;17.38;67.49
65718;BME280;52445;52.466;-1.016;2022-10-04T18:26:22;99856.63;;;17.38;68.49
65718;BME280;52445;52.466;-1.016;2022-10-04T18:28:51;99853.09;;;17.39;67.75
65718;BME280;52445;52.466;-1.016;2022-10-04T18:34:00;99847.75;;;17.42;67.50
65718;BME280;52445;52.466;-1.016;2022-10-04T18:39:43;99848.66;;;17.41;68.23
65718;BME280;52445;52.466;-1.016;2022-10-04T18:47:32;99827.69;;;17.43;67.59
65718;BME280;52445;52.466;-1.016;2022-10-04T18:50:04;99822.50;;;17.41;68.04
65718;BME280;52445;52.466;-1.016;2022-10-04T19:03:53;99804.16;;;17.41;68.50
65718;BME280;52445;52.466;-1.016;2022-10-04T19:06:29;99811.22;;;17.39;67.53
65718;BME280;52445;52.466;-1.016;2022-10-04T19:12:05;99816.44;;;17.39;67.34
65718;BME280;52445;52.466;-1.016;2022-10-04T19:15:00;99806.22;;;17.33;67.80
65718;BME280;52445;52.466;-1.016;2022-10-04T19:20:41;99823.81;;;17.28;68.39
65718;BME280;52445;52.466;-1.016;2022-10-04T19:28:41;99795.94;;;17.27;67.99
65718;BME280;52445;52.466;-1.016;2022-10-04T19:31:20;99804.81;;;17.23;68.35
65718;BME280;52445;52.466;-1.016;2022-10-04T19:33:58;99810.97;;;17.21;67.56
65718;BME280;52445;52.466;-1.016;2022-10-04T19:41:59;99814.41;;;17.22;67.79
65718;BME280;52445;52.466;-1.016;2022-10-04T20:01:18;99811.44;;;17.07;68.33
65718;BME280;52445;52.466;-1.016;2022-10-04T20:03:47;99812.25;;;17.08;68.27
65718;BME280;52445;52.466;-1.016;2022-10-04T20:06:33;99815.78;;;17.07;68.39
65718;BME280;52445;52.466;-1.016;2022-10-04T20:09:25;99814.25;;;17.00;68.93
65718;BME280;52445;52.466;-1.016;2022-10-04T20:11:55;99812.47;;;17.02;69.28
65718;BME280;52445;52.466;-1.016;2022-10-04T20:19:39;99797.53;;;17.05;68.60
65718;BME280;52445;52.466;-1.016;2022-10-04T20:30:04;99789.44;;;17.39;68.20
65718;BME280;52445;52.466;-1.016;2022-10-04T20:35:10;99777.22;;;17.12;68.77
65718;BME280;52445;52.466;-1.016;2022-10-04T20:45:49;99787.13;;;17.02;68.85
65718;BME280;52445;52.466;-1.016;2022-10-04T20:48:26;99781.94;;;17.01;68.97
65718;BME280;52445;52.466;-1.016;2022-10-04T20:50:53;99781.44;;;16.89;68.94
65718;BME280;52445;52.466;-1.016;2022-10-04T20:56:22;99772.47;;;17.24;68.52
65718;BME280;52445;52.466;-1.016;2022-10-04T20:58:51;99772.00;;;17.12;68.80
65718;BME280;52445;52.466;-1.016;2022-10-04T21:01:34;99777.56;;;17.01;68.94
65718;BME280;52445;52.466;-1.016;2022-10-04T21:04:28;99775.00;;;17.00;68.74
65718;BME280;52445;52.466;-1.016;2022-10-04T21:09:39;99763.53;;;17.04;68.73
65718;BME280;52445;52.466;-1.016;2022-10-04T21:12:23;99759.94;;;16.81;69.85
65718;BME280;52445;52.466;-1.016;2022-10-04T21:17:59;99764.16;;;16.85;69.41
65718;BME280;52445;52.466;-1.016;2022-10-04T21:20:47;99754.78;;;16.78;70.00
65718;BME280;52445;52.466;-1.016;2022-10-04T21:26:20;99746.94;;;16.78;69.42
65718;BME280;52445;52.466;-1.016;2022-10-04T21:28:52;99751.19;;;16.82;69.71
65718;BME280;52445;52.466;-1.016;2022-10-04T21:31:18;99734.69;;;16.80;69.24
65718;BME280;52445;52.466;-1.016;2022-10-04T21:33:45;99744.19;;;16.82;69.69
65718;BME280;52445;52.466;-1.016;2022-10-04T21:36:12;99736.38;;;16.81;69.58
65718;BME280;52445;52.466;-1.016;2022-10-04T21:38:38;99739.81;;;16.83;69.91
65718;BME280;52445;52.466;-1.016;2022-10-04T21:41:05;99745.88;;;16.83;69.90
65718;BME280;52445;52.466;-1.016;2022-10-04T21:43:32;99743.19;;;16.87;69.64
65718;BME280;52445;52.466;-1.016;2022-10-04T21:45:59;99737.25;;;16.81;69.64
65718;BME280;52445;52.466;-1.016;2022-10-04T21:48:26;99747.75;;;16.80;69.58
65718;BME280;52445;52.466;-1.016;2022-10-04T21:50:53;99749.66;;;16.76;69.90
65718;BME280;52445;52.466;-1.016;2022-10-04T21:53:20;99743.44;;;16.79;70.00
65718;BME280;52445;52.466;-1.016;2022-10-04T21:55:47;99738.28;;;16.77;69.37
65718;BME280;52445;52.466;-1.016;2022-10-04T21:58:13;99739.09;;;16.78;69.92
65718;BME280;52445;52.466;-1.016;2022-10-04T22:00:40;99735.59;;;16.79;69.94
65718;BME280;52445;52.466;-1.016;2022-10-04T22:03:07;99732.16;;;16.77;69.59
65718;BME280;52445;52.466;-1.016;2022-10-04T22:05:33;99730.41;;;16.77;69.50
65718;BME280;52445;52.466;-1.016;2022-10-04T22:08:00;99714.78;;;16.76;69.40
65718;BME280;52445;52.466;-1.016;2022-10-04T22:10:27;99702.78;;;16.70;69.85
65718;BME280;52445;52.466;-1.016;2022-10-04T22:12:54;99712.25;;;16.73;69.52
65718;BME280;52445;52.466;-1.016;2022-10-04T22:15:23;99704.47;;;16.71;69.98
65718;BME280;52445;52.466;-1.016;2022-10-04T22:17:50;99701.91;;;16.69;69.91
65718;BME280;52445;52.466;-1.016;2022-10-04T22:20:17;99696.81;;;16.66;69.93
65718;BME280;52445;52.466;-1.016;2022-10-04T22:22:44;99678.66;;;16.62;70.35
65718;BME280;52445;52.466;-1.016;2022-10-04T22:25:16;99681.13;;;16.66;70.15
65718;BME280;52445;52.466;-1.016;2022-10-04T22:27:43;99682.09;;;16.62;70.17
65718;BME280;52445;52.466;-1.016;2022-10-04T22:30:20;99684.84;;;16.59;70.05
65718;BME280;52445;52.466;-1.016;2022-10-04T22:32:47;99675.72;;;16.44;70.78
65718;BME280;52445;52.466;-1.016;2022-10-04T22:35:17;99679.47;;;16.62;69.77
65718;BME280;52445;52.466;-1.016;2022-10-04T22:37:45;99680.34;;;16.63;69.31
65718;BME280;52445;52.466;-1.016;2022-10-04T22:40:18;99680.34;;;16.63;69.46
65718;BME280;52445;52.466;-1.016;2022-10-04T22:42:48;99681.31;;;16.60;69.98
65718;BME280;52445;52.466;-1.016;2022-10-04T22:45:20;99679.69;;;16.56;70.23
65718;BME280;52445;52.466;-1.016;2022-10-04T22:47:47;99679.38;;;16.65;70.22
65718;BME280;52445;52.466;-1.016;2022-10-04T22:50:26;99681.22;;;16.63;69.50
65718;BME280;52445;52.466;-1.016;2022-10-04T22:52:53;99674.06;;;16.68;69.74
65718;BME280;52445;52.466;-1.016;2022-10-04T22:55:20;99661.91;;;16.67;69.38
65718;BME280;52445;52.466;-1.016;2022-10-04T22:57:47;99671.50;;;16.67;69.47
65718;BME280;52445;52.466;-1.016;2022-10-04T23:00:14;99668.94;;;16.65;69.94
65718;BME280;52445;52.466;-1.016;2022-10-04T23:02:41;99677.47;;;16.70;70.27
65718;BME280;52445;52.466;-1.016;2022-10-04T23:05:14;99674.06;;;16.68;69.82
65718;BME280;52445;52.466;-1.016;2022-10-04T23:07:42;99673.84;;;16.75;69.60
65718;BME280;52445;52.466;-1.016;2022-10-04T23:10:11;99659.00;;;16.75;69.73
65718;BME280;52445;52.466;-1.016;2022-10-04T23:12:38;99668.63;;;16.75;70.10
65718;BME280;52445;52.466;-1.016;2022-10-04T23:15:06;99656.34;;;16.77;69.90
65718;BME280;52445;52.466;-1.016;2022-10-04T23:17:35;99654.59;;;16.77;69.05
65718;BME280;52445;52.466;-1.016;2022-10-04T23:20:20;99652.94;;;16.75;69.41
65718;BME280;52445;52.466;-1.016;2022-10-04T23:22:49;99645.78;;;16.80;69.78
65718;BME280;52445;52.466;-1.016;2022-10-04T23:25:19;99635.31;;;16.80;68.97
65718;BME280;52445;52.466;-1.016;2022-10-04T23:27:46;99651.72;;;16.83;69.53
65718;BME280;52445;52.466;-1.016;2022-10-04T23:30:15;99631.69;;;16.84;69.82
65718;BME280;52445;52.466;-1.016;2022-10-04T23:32:44;99630.94;;;16.80;69.44
65718;BME280;52445;52.466;-1.016;2022-10-04T23:35:16;99640.44;;;16.83;69.06
65718;BME280;52445;52.466;-1.016;2022-10-04T23:37:44;99622.13;;;16.83;69.25
65718;BME280;52445;52.466;-1.016;2022-10-04T23:40:14;99623.03;;;16.82;69.93
65718;BME280;52445;52.466;-1.016;2022-10-04T23:42:43;99620.47;;;16.80;69.34
65718;BME280;52445;52.466;-1.016;2022-10-04T23:45:15;99605.41;;;16.87;69.79
65718;BME280;52445;52.466;-1.016;2022-10-04T23:47:44;99596.91;;;16.82;69.33
65718;BME280;52445;52.466;-1.016;2022-10-04T23:50:20;99610.84;;;16.81;69.45
65718;BME280;52445;52.466;-1.016;2022-10-04T23:52:48;99598.59;;;16.83;69.39
65718;BME280;52445;52.466;-1.016;2022-10-04T23:55:19;99595.16;;;16.81;69.45
65718;BME280;52445;52.466;-1.016;2022-10-04T23:57:47;99594.19;;;16.83;69.61
